sensor_id;sensor_type;location;lat;lon;timestamp;pressure;altitude;pressure_sealevel;temperature;humidity
25232;BME280;13176;51.140;6.290;2023-05-09T00:01:12;101049.31;;;19.36;87.75
25232;BME280;13176;51.140;6.290;2023-05-09T00:03:39;101064.09;;;19.41;88.73
25232;BME280;13176;51.140;6.290;2023-05-09T00:06:08;101069.41;;;19.41;88.45
25232;BME280;13176;51.140;6.290;2023-05-09T00:08:34;101077.25;;;19.43;89.66
25232;BME280;13176;51.140;6.290;2023-05-09T00:11:01;101067.53;;;19.43;89.40
25232;BME280;13176;51.140;6.290;2023-05-09T00:13:27;101071.97;;;19.43;89.32
25232;BME280;13176;51.140;6.290;2023-05-09T00:15:54;100977.22;;;18.91;89.67
25232;BME280;13176;51.140;6.290;2023-05-09T00:18:22;101044.81;;;19.38;89.85
25232;BME280;13176;51.140;6.290;2023-05-09T00:20:49;101062.44;;;19.58;89.60
25232;BME280;13176;51.140;6.290;2023-05-09T00:23:15;101043.63;;;19.45;89.54
25232;BME280;13176;51.140;6.290;2023-05-09T00:25:42;101041.34;;;19.37;89.82
25232;BME280;13176;51.140;6.290;2023-05-09T00:28:08;101042.84;;;19.43;89.99
25232;BME280;13176;51.140;6.290;2023-05-09T00:30:35;100991.06;;;19.17;89.41
25232;BME280;13176;51.140;6.290;2023-05-09T00:33:01;101006.84;;;19.39;89.29
25232;BME280;13176;51.140;6.290;2023-05-09T00:35:28;101041.25;;;19.58;89.26
25232;BME280;13176;51.140;6.290;2023-05-09T00:37:54;101035.94;;;19.58;89.36
25232;BME280;13176;51.140;6.290;2023-05-09T00:40:21;100943.06;;;19.05;88.33
25232;BME280;13176;51.140;6.290;2023-05-09T00:42:47;101062.16;;;19.64;88.94
25232;BME280;13176;51.140;6.290;2023-05-09T00:45:14;101005.72;;;19.44;88.75
25232;BME280;13176;51.140;6.290;2023-05-09T00:47:40;101037.66;;;19.59;89.13
25232;BME280;13176;51.140;6.290;2023-05-09T00:50:07;101014.09;;;19.53;89.34
25232;BME280;13176;51.140;6.290;2023-05-09T00:52:34;101040.13;;;19.82;88.65
25232;BME280;13176;51.140;6.290;2023-05-09T00:55:01;100992.50;;;19.62;87.92
25232;BME280;13176;51.140;6.290;2023-05-09T00:57:28;101016.28;;;19.82;87.14
25232;BME280;13176;51.140;6.290;2023-05-09T00:59:54;101006.88;;;19.75;86.97
25232;BME280;13176;51.140;6.290;2023-05-09T01:02:21;101023.53;;;19.79;87.41
25232;BME280;13176;51.140;6.290;2023-05-09T01:04:47;101024.22;;;19.82;87.08
25232;BME280;13176;51.140;6.290;2023-05-09T01:07:31;101030.97;;;19.89;86.49
25232;BME280;13176;51.140;6.290;2023-05-09T01:10:08;101028.59;;;19.83;87.34
25232;BME280;13176;51.140;6.290;2023-05-09T01:18:23;101010.22;;;19.99;85.97
25232;BME280;13176;51.140;6.290;2023-05-09T01:20:56;100986.63;;;19.74;85.59
25232;BME280;13176;51.140;6.290;2023-05-09T01:29:35;100986.91;;;19.68;86.54
25232;BME280;13176;51.140;6.290;2023-05-09T01:32:06;100988.78;;;19.85;85.86
25232;BME280;13176;51.140;6.290;2023-05-09T01:34:34;100963.28;;;19.82;84.27
25232;BME280;13176;51.140;6.290;2023-05-09T01:37:03;100959.34;;;19.91;83.98
25232;BME280;13176;51.140;6.290;2023-05-09T01:39:32;101001.97;;;20.23;83.05
25232;BME280;13176;51.140;6.290;2023-05-09T01:42:01;100970.47;;;19.99;83.33
25232;BME280;13176;51.140;6.290;2023-05-09T01:44:34;100982.75;;;20.01;84.28
25232;BME280;13176;51.140;6.290;2023-05-09T01:47:03;100940.75;;;19.92;82.52
25232;BME280;13176;51.140;6.290;2023-05-09T01:49:31;100933.09;;;19.86;83.20
25232;BME280;13176;51.140;6.290;2023-05-09T01:52:00;100978.84;;;20.08;83.57
25232;BME280;13176;51.140;6.290;2023-05-09T01:54:29;100967.41;;;20.08;83.34
25232;BME280;13176;51.140;6.290;2023-05-09T01:56:56;100922.50;;;19.86;82.37
25232;BME280;13176;51.140;6.290;2023-05-09T01:59:25;100939.31;;;19.85;82.85
25232;BME280;13176;51.140;6.290;2023-05-09T02:01:52;100963.66;;;19.93;83.41
25232;BME280;13176;51.140;6.290;2023-05-09T02:04:20;100967.88;;;19.97;82.86
25232;BME280;13176;51.140;6.290;2023-05-09T02:06:48;100956.56;;;19.94;82.97
25232;BME280;13176;51.140;6.290;2023-05-09T02:09:19;100976.84;;;20.13;82.97
25232;BME280;13176;51.140;6.290;2023-05-09T02:11:45;100887.66;;;19.58;83.05
25232;BME280;13176;51.140;6.290;2023-05-09T02:14:12;100901.38;;;19.66;82.32
25232;BME280;13176;51.140;6.290;2023-05-09T02:16:39;100933.88;;;19.88;81.40
25232;BME280;13176;51.140;6.290;2023-05-09T02:19:06;100921.84;;;19.81;82.11
25232;BME280;13176;51.140;6.290;2023-05-09T02:21:32;100894.38;;;19.65;82.20
25232;BME280;13176;51.140;6.290;2023-05-09T02:23:59;100964.66;;;20.09;81.66
25232;BME280;13176;51.140;6.290;2023-05-09T02:26:26;100836.50;;;19.40;81.63
25232;BME280;13176;51.140;6.290;2023-05-09T02:28:54;100955.38;;;20.01;81.65
25232;BME280;13176;51.140;6.290;2023-05-09T02:31:23;100975.13;;;20.12;81.70
25232;BME280;13176;51.140;6.290;2023-05-09T02:33:51;100946.56;;;20.00;81.99
25232;BME280;13176;51.140;6.290;2023-05-09T02:36:19;100947.50;;;19.99;81.82
25232;BME280;13176;51.140;6.290;2023-05-09T02:38:47;100951.34;;;20.11;82.41
25232;BME280;13176;51.140;6.290;2023-05-09T02:41:14;100937.75;;;20.00;82.14
25232;BME280;13176;51.140;6.290;2023-05-09T02:43:41;100950.63;;;20.07;81.33
25232;BME280;13176;51.140;6.290;2023-05-09T02:46:08;100961.16;;;20.09;81.75
25232;BME280;13176;51.140;6.290;2023-05-09T02:48:35;100936.03;;;19.99;81.67
25232;BME280;13176;51.140;6.290;2023-05-09T02:51:02;100925.44;;;19.80;81.22
25232;BME280;13176;51.140;6.290;2023-05-09T02:53:29;100938.81;;;19.77;82.09
25232;BME280;13176;51.140;6.290;2023-05-09T02:55:56;100859.63;;;19.18;82.71
25232;BME280;13176;51.140;6.290;2023-05-09T02:58:22;100921.28;;;19.56;83.57
25232;BME280;13176;51.140;6.290;2023-05-09T03:00:49;100945.31;;;19.70;83.32
25232;BME280;13176;51.140;6.290;2023-05-09T03:03:16;100925.84;;;19.71;83.21
25232;BME280;13176;51.140;6.290;2023-05-09T03:05:43;100938.75;;;19.79;83.20
25232;BME280;13176;51.140;6.290;2023-05-09T03:08:09;100944.09;;;19.77;84.05
25232;BME280;13176;51.140;6.290;2023-05-09T03:10:36;100933.22;;;19.83;83.43
25232;BME280;13176;51.140;6.290;2023-05-09T03:13:02;100940.59;;;19.95;82.74
25232;BME280;13176;51.140;6.290;2023-05-09T03:15:29;100914.03;;;19.78;83.06
25232;BME280;13176;51.140;6.290;2023-05-09T03:17:55;100908.25;;;19.70;82.88
25232;BME280;13176;51.140;6.290;2023-05-09T03:20:22;100916.63;;;19.80;83.07
25232;BME280;13176;51.140;6.290;2023-05-09T03:22:48;100933.72;;;19.91;83.40
25232;BME280;13176;51.140;6.290;2023-05-09T03:25:14;100914.25;;;19.92;82.50
25232;BME280;13176;51.140;6.290;2023-05-09T03:27:56;100892.22;;;19.73;82.93
25232;BME280;13176;51.140;6.290;2023-05-09T03:30:22;100885.34;;;19.69;82.55
25232;BME280;13176;51.140;6.290;2023-05-09T03:32:49;100843.38;;;19.44;82.84
25232;BME280;13176;51.140;6.290;2023-05-09T03:35:15;100913.53;;;19.89;83.08
25232;BME280;13176;51.140;6.290;2023-05-09T03:37:42;100893.13;;;19.72;82.64
25232;BME280;13176;51.140;6.290;2023-05-09T03:40:08;100888.63;;;19.74;82.81
25232;BME280;13176;51.140;6.290;2023-05-09T03:42:35;100798.38;;;19.25;82.60
25232;BME280;13176;51.140;6.290;2023-05-09T03:45:01;100903.78;;;19.89;83.02
25232;BME280;13176;51.140;6.290;2023-05-09T03:47:28;100890.41;;;19.92;82.51
25232;BME280;13176;51.140;6.290;2023-05-09T03:49:54;100876.97;;;19.78;81.81
25232;BME280;13176;51.140;6.290;2023-05-09T03:52:20;100889.78;;;19.87;82.64
25232;BME280;13176;51.140;6.290;2023-05-09T03:54:47;100874.84;;;19.85;82.92
25232;BME280;13176;51.140;6.290;2023-05-09T03:57:13;100876.06;;;19.96;82.51
25232;BME280;13176;51.140;6.290;2023-05-09T03:59:39;100880.75;;;19.91;82.88
25232;BME280;13176;51.140;6.290;2023-05-09T04:02:06;100861.06;;;19.78;82.79
25232;BME280;13176;51.140;6.290;2023-05-09T04:04:32;100841.56;;;19.62;82.39
25232;BME280;13176;51.140;6.290;2023-05-09T04:06:59;100873.03;;;19.68;82.55
25232;BME280;13176;51.140;6.290;2023-05-09T04:09:25;100876.78;;;19.64;82.93
25232;BME280;13176;51.140;6.290;2023-05-09T04:11:52;100851.72;;;19.53;83.39
25232;BME280;13176;51.140;6.290;2023-05-09T04:14:18;100868.06;;;19.62;83.40
25232;BME280;13176;51.140;6.290;2023-05-09T04:16:45;100799.53;;;19.20;83.44
25232;BME280;13176;51.140;6.290;2023-05-09T04:19:11;100871.16;;;19.70;82.73
25232;BME280;13176;51.140;6.290;2023-05-09T04:21:37;100876.31;;;19.73;82.72
25232;BME280;13176;51.140;6.290;2023-05-09T04:24:04;100869.78;;;19.63;82.12
25232;BME280;13176;51.140;6.290;2023-05-09T04:26:31;100857.25;;;19.49;82.89
25232;BME280;13176;51.140;6.290;2023-05-09T04:28:57;100812.38;;;19.09;82.91
25232;BME280;13176;51.140;6.290;2023-05-09T04:31:23;100874.50;;;19.39;83.77
25232;BME280;13176;51.140;6.290;2023-05-09T04:33:51;100821.53;;;19.02;84.26
25232;BME280;13176;51.140;6.290;2023-05-09T04:36:18;100870.47;;;19.49;83.64
25232;BME280;13176;51.140;6.290;2023-05-09T04:38:44;100854.59;;;19.49;83.29
25232;BME280;13176;51.140;6.290;2023-05-09T04:41:11;100863.19;;;19.53;82.58
25232;BME280;13176;51.140;6.290;2023-05-09T04:43:37;100863.03;;;19.56;82.98
25232;BME280;13176;51.140;6.290;2023-05-09T04:46:04;100766.31;;;19.13;83.20
25232;BME280;13176;51.140;6.290;2023-05-09T04:48:30;100878.63;;;19.81;83.35
25232;BME280;13176;51.140;6.290;2023-05-09T04:50:57;100857.56;;;19.78;82.48
25232;BME280;13176;51.140;6.290;2023-05-09T04:53:23;100865.13;;;19.85;81.78
25232;BME280;13176;51.140;6.290;2023-05-09T04:55:50;100803.22;;;19.52;81.64
25232;BME280;13176;51.140;6.290;2023-05-09T04:58:17;100844.72;;;19.87;81.30
25232;BME280;13176;51.140;6.290;2023-05-09T05:00:43;100755.31;;;19.40;80.75
25232;BME280;13176;51.140;6.290;2023-05-09T05:03:09;100777.28;;;19.59;81.07
25232;BME280;13176;51.140;6.290;2023-05-09T05:05:36;100824.53;;;19.85;81.17
25232;BME280;13176;51.140;6.290;2023-05-09T05:08:03;100847.50;;;20.03;80.98
25232;BME280;13176;51.140;6.290;2023-05-09T05:10:30;100770.38;;;19.56;80.55
25232;BME280;13176;51.140;6.290;2023-05-09T05:12:56;100852.13;;;19.99;80.92
25232;BME280;13176;51.140;6.290;2023-05-09T05:15:22;100783.88;;;19.69;80.59
25232;BME280;13176;51.140;6.290;2023-05-09T05:17:49;100765.88;;;19.58;80.57
25232;BME280;13176;51.140;6.290;2023-05-09T05:20:15;100754.16;;;19.46;80.55
25232;BME280;13176;51.140;6.290;2023-05-09T05:22:44;100848.66;;;19.97;81.21
25232;BME280;13176;51.140;6.290;2023-05-09T05:25:11;100735.75;;;19.43;81.10
25232;BME280;13176;51.140;6.290;2023-05-09T05:27:38;100814.72;;;19.87;81.70
25232;BME280;13176;51.140;6.290;2023-05-09T05:30:05;100774.25;;;19.66;81.69
25232;BME280;13176;51.140;6.290;2023-05-09T05:32:32;100821.44;;;19.94;81.26
25232;BME280;13176;51.140;6.290;2023-05-09T05:34:59;100837.59;;;20.06;81.08
25232;BME280;13176;51.140;6.290;2023-05-09T05:37:27;100698.84;;;19.23;81.07
25232;BME280;13176;51.140;6.290;2023-05-09T05:39:54;100732.66;;;19.52;80.86
25232;BME280;13176;51.140;6.290;2023-05-09T05:42:20;100793.38;;;19.90;81.38
25232;BME280;13176;51.140;6.290;2023-05-09T05:44:46;100801.53;;;20.04;80.76
25232;BME280;13176;51.140;6.290;2023-05-09T05:47:13;100744.19;;;19.67;80.39
25232;BME280;13176;51.140;6.290;2023-05-09T05:49:39;100804.09;;;20.05;80.22
25232;BME280;13176;51.140;6.290;2023-05-09T05:52:06;100776.91;;;20.02;80.33
25232;BME280;13176;51.140;6.290;2023-05-09T05:54:32;100775.56;;;20.10;80.21
25232;BME280;13176;51.140;6.290;2023-05-09T05:56:59;100773.06;;;20.07;80.29
25232;BME280;13176;51.140;6.290;2023-05-09T05:59:25;100729.00;;;19.88;79.54
25232;BME280;13176;51.140;6.290;2023-05-09T06:01:52;100801.97;;;20.29;79.69
25232;BME280;13176;51.140;6.290;2023-05-09T06:04:18;100811.66;;;20.47;79.02
25232;BME280;13176;51.140;6.290;2023-05-09T06:06:45;100793.97;;;20.30;79.30
25232;BME280;13176;51.140;6.290;2023-05-09T06:09:11;100738.38;;;19.95;79.64
25232;BME280;13176;51.140;6.290;2023-05-09T06:11:38;100727.91;;;19.92;79.49
25232;BME280;13176;51.140;6.290;2023-05-09T06:14:04;100705.97;;;19.73;79.78
25232;BME280;13176;51.140;6.290;2023-05-09T06:16:31;100696.53;;;19.84;79.86
25232;BME280;13176;51.140;6.290;2023-05-09T06:18:58;100786.28;;;20.41;79.86
25232;BME280;13176;51.140;6.290;2023-05-09T06:21:24;100709.81;;;20.01;80.00
25232;BME280;13176;51.140;6.290;2023-05-09T06:23:51;100755.59;;;20.37;79.50
25232;BME280;13176;51.140;6.290;2023-05-09T06:26:37;100778.56;;;20.54;79.31
25232;BME280;13176;51.140;6.290;2023-05-09T06:29:04;100774.88;;;20.56;79.30
25232;BME280;13176;51.140;6.290;2023-05-09T06:31:31;100748.06;;;20.45;79.07
25232;BME280;13176;51.140;6.290;2023-05-09T06:34:00;100742.59;;;20.48;79.31
25232;BME280;13176;51.140;6.290;2023-05-09T06:36:27;100746.81;;;20.52;77.96
25232;BME280;13176;51.140;6.290;2023-05-09T06:38:53;100740.81;;;20.49;78.32
25232;BME280;13176;51.140;6.290;2023-05-09T06:41:20;100721.66;;;20.44;78.28
25232;BME280;13176;51.140;6.290;2023-05-09T06:43:46;100736.03;;;20.55;77.26
25232;BME280;13176;51.140;6.290;2023-05-09T06:46:15;100676.97;;;20.21;77.73
25232;BME280;13176;51.140;6.290;2023-05-09T06:48:41;100682.63;;;20.30;77.53
25232;BME280;13176;51.140;6.290;2023-05-09T06:51:08;100716.22;;;20.62;77.01
25232;BME280;13176;51.140;6.290;2023-05-09T06:53:34;100628.56;;;20.17;76.71
25232;BME280;13176;51.140;6.290;2023-05-09T06:56:00;100695.59;;;20.67;76.56
25232;BME280;13176;51.140;6.290;2023-05-09T06:58:30;100645.03;;;20.39;76.80
25232;BME280;13176;51.140;6.290;2023-05-09T07:00:56;100739.03;;;20.81;77.33
25232;BME280;13176;51.140;6.290;2023-05-09T07:03:23;100736.44;;;20.95;77.09
25232;BME280;13176;51.140;6.290;2023-05-09T07:05:49;100634.06;;;20.45;76.78
25232;BME280;13176;51.140;6.290;2023-05-09T07:08:17;100712.22;;;21.01;76.28
25232;BME280;13176;51.140;6.290;2023-05-09T07:10:43;100636.13;;;20.71;76.02
25232;BME280;13176;51.140;6.290;2023-05-09T07:13:10;100701.09;;;21.10;76.47
25232;BME280;13176;51.140;6.290;2023-05-09T07:15:36;100634.06;;;20.76;75.76
25232;BME280;13176;51.140;6.290;2023-05-09T07:18:08;100665.50;;;20.99;74.99
25232;BME280;13176;51.140;6.290;2023-05-09T07:20:34;100711.97;;;21.37;74.10
25232;BME280;13176;51.140;6.290;2023-05-09T07:23:04;100711.59;;;21.43;75.12
25232;BME280;13176;51.140;6.290;2023-05-09T07:25:31;100695.84;;;21.40;74.34
25232;BME280;13176;51.140;6.290;2023-05-09T07:27:57;100665.69;;;21.41;73.66
25232;BME280;13176;51.140;6.290;2023-05-09T07:30:23;100697.41;;;21.58;73.32
25232;BME280;13176;51.140;6.290;2023-05-09T07:32:50;100689.63;;;21.55;72.96
25232;BME280;13176;51.140;6.290;2023-05-09T07:35:17;100701.28;;;21.68;73.76
25232;BME280;13176;51.140;6.290;2023-05-09T07:37:44;100605.28;;;21.15;73.15
25232;BME280;13176;51.140;6.290;2023-05-09T07:40:11;100662.56;;;21.64;73.18
25232;BME280;13176;51.140;6.290;2023-05-09T07:42:37;100684.81;;;21.77;72.42
25232;BME280;13176;51.140;6.290;2023-05-09T07:45:05;100679.97;;;21.83;72.69
25232;BME280;13176;51.140;6.290;2023-05-09T07:47:32;100682.09;;;22.06;72.49
25232;BME280;13176;51.140;6.290;2023-05-09T07:49:58;100682.41;;;22.15;72.97
25232;BME280;13176;51.140;6.290;2023-05-09T07:52:24;100658.91;;;22.08;70.83
25232;BME280;13176;51.140;6.290;2023-05-09T07:54:51;100644.03;;;22.05;70.23
25232;BME280;13176;51.140;6.290;2023-05-09T07:57:17;100646.88;;;22.16;70.20
25232;BME280;13176;51.140;6.290;2023-05-09T07:59:44;100635.66;;;21.97;69.79
25232;BME280;13176;51.140;6.290;2023-05-09T08:02:10;100652.19;;;22.16;70.08
25232;BME280;13176;51.140;6.290;2023-05-09T08:04:37;100658.88;;;22.37;68.72
25232;BME280;13176;51.140;6.290;2023-05-09T08:07:04;100627.50;;;22.42;69.09
25232;BME280;13176;51.140;6.290;2023-05-09T08:09:31;100647.78;;;22.71;68.04
25232;BME280;13176;51.140;6.290;2023-05-09T08:14:23;100563.88;;;22.39;67.21
25232;BME280;13176;51.140;6.290;2023-05-09T08:16:50;100652.28;;;22.97;68.01
25232;BME280;13176;51.140;6.290;2023-05-09T08:19:16;100521.88;;;22.30;66.64
25232;BME280;13176;51.140;6.290;2023-05-09T08:21:44;100552.25;;;22.54;65.87
25232;BME280;13176;51.140;6.290;2023-05-09T08:24:10;100549.63;;;22.40;66.67
25232;BME280;13176;51.140;6.290;2023-05-09T08:26:37;100542.41;;;22.42;65.26
25232;BME280;13176;51.140;6.290;2023-05-09T08:29:03;100618.03;;;23.05;64.46
25232;BME280;13176;51.140;6.290;2023-05-09T08:31:29;100594.13;;;22.91;65.22
25232;BME280;13176;51.140;6.290;2023-05-09T08:33:56;100588.50;;;23.22;64.99
25232;BME280;13176;51.140;6.290;2023-05-09T08:36:22;100455.00;;;22.36;62.92
25232;BME280;13176;51.140;6.290;2023-05-09T08:38:49;100546.41;;;22.88;62.78
25232;BME280;13176;51.140;6.290;2023-05-09T08:41:15;100550.78;;;22.89;62.28
25232;BME280;13176;51.140;6.290;2023-05-09T08:43:42;100499.31;;;22.76;63.49
25232;BME280;13176;51.140;6.290;2023-05-09T08:46:10;100488.91;;;22.98;64.11
25232;BME280;13176;51.140;6.290;2023-05-09T08:48:37;100597.66;;;23.82;63.37
25232;BME280;13176;51.140;6.290;2023-05-09T08:51:05;100571.06;;;23.43;61.59
25232;BME280;13176;51.140;6.290;2023-05-09T08:53:33;100495.44;;;22.94;63.50
25232;BME280;13176;51.140;6.290;2023-05-09T08:56:00;100474.84;;;22.96;63.91
25232;BME280;13176;51.140;6.290;2023-05-09T08:58:28;100450.09;;;22.69;63.35
25232;BME280;13176;51.140;6.290;2023-05-09T09:00:55;100592.56;;;23.40;62.78
25232;BME280;13176;51.140;6.290;2023-05-09T09:03:23;100594.88;;;23.19;62.58
25232;BME280;13176;51.140;6.290;2023-05-09T09:05:52;100560.59;;;23.01;63.53
25232;BME280;13176;51.140;6.290;2023-05-09T09:08:21;100516.41;;;22.60;62.89
25232;BME280;13176;51.140;6.290;2023-05-09T09:10:48;100592.25;;;23.06;63.42
25232;BME280;13176;51.140;6.290;2023-05-09T09:13:16;100553.84;;;22.83;64.50
25232;BME280;13176;51.140;6.290;2023-05-09T09:15:44;100579.59;;;22.83;64.40
25232;BME280;13176;51.140;6.290;2023-05-09T09:18:17;100570.63;;;22.71;64.69
25232;BME280;13176;51.140;6.290;2023-05-09T09:20:49;100537.81;;;22.30;63.66
25232;BME280;13176;51.140;6.290;2023-05-09T09:23:18;100534.78;;;22.50;63.84
25232;BME280;13176;51.140;6.290;2023-05-09T09:25:46;100548.28;;;22.74;63.02
25232;BME280;13176;51.140;6.290;2023-05-09T09:28:12;100551.63;;;22.90;62.32
25232;BME280;13176;51.140;6.290;2023-05-09T09:30:46;100571.22;;;23.15;62.92
25232;BME280;13176;51.140;6.290;2023-05-09T09:33:24;100534.94;;;23.00;64.01
25232;BME280;13176;51.140;6.290;2023-05-09T09:35:53;100400.88;;;22.37;62.88
25232;BME280;13176;51.140;6.290;2023-05-09T09:38:20;100437.47;;;22.85;60.81
25232;BME280;13176;51.140;6.290;2023-05-09T09:43:17;100539.53;;;23.62;62.22
25232;BME280;13176;51.140;6.290;2023-05-09T09:45:48;100557.31;;;23.74;61.32
25232;BME280;13176;51.140;6.290;2023-05-09T09:48:16;100463.00;;;23.14;60.50
25232;BME280;13176;51.140;6.290;2023-05-09T09:50:42;100523.97;;;23.43;61.30
25232;BME280;13176;51.140;6.290;2023-05-09T09:53:11;100527.59;;;23.55;60.29
25232;BME280;13176;51.140;6.290;2023-05-09T09:55:48;100545.47;;;23.78;59.38
25232;BME280;13176;51.140;6.290;2023-05-09T09:58:16;100506.91;;;23.96;58.99
25232;BME280;13176;51.140;6.290;2023-05-09T10:01:09;100529.03;;;24.21;57.57
25232;BME280;13176;51.140;6.290;2023-05-09T10:06:03;100518.53;;;24.66;56.26
25232;BME280;13176;51.140;6.290;2023-05-09T10:08:29;100438.81;;;24.03;56.26
25232;BME280;13176;51.140;6.290;2023-05-09T10:10:57;100459.69;;;24.09;58.83
25232;BME280;13176;51.140;6.290;2023-05-09T10:13:25;100390.75;;;23.43;56.43
25232;BME280;13176;51.140;6.290;2023-05-09T10:15:53;100513.25;;;24.41;56.40
25232;BME280;13176;51.140;6.290;2023-05-09T10:18:26;100492.00;;;24.17;54.98
25232;BME280;13176;51.140;6.290;2023-05-09T10:20:55;100492.16;;;23.78;57.34
25232;BME280;13176;51.140;6.290;2023-05-09T10:23:23;100431.03;;;23.39;57.45
25232;BME280;13176;51.140;6.290;2023-05-09T10:25:59;100447.75;;;23.28;58.72
25232;BME280;13176;51.140;6.290;2023-05-09T10:28:31;100489.44;;;23.67;58.05
25232;BME280;13176;51.140;6.290;2023-05-09T10:31:20;100499.84;;;23.70;60.14
25232;BME280;13176;51.140;6.290;2023-05-09T10:33:49;100497.75;;;23.50;59.26
25232;BME280;13176;51.140;6.290;2023-05-09T10:36:17;100481.31;;;23.81;59.43
25232;BME280;13176;51.140;6.290;2023-05-09T10:38:46;100468.38;;;23.75;57.91
25232;BME280;13176;51.140;6.290;2023-05-09T10:41:15;100460.59;;;23.72;58.23
25232;BME280;13176;51.140;6.290;2023-05-09T10:43:44;100465.72;;;24.00;57.63
25232;BME280;13176;51.140;6.290;2023-05-09T10:46:11;100478.56;;;24.06;57.34
25232;BME280;13176;51.140;6.290;2023-05-09T10:48:38;100480.22;;;23.71;56.99
25232;BME280;13176;51.140;6.290;2023-05-09T10:51:06;100442.09;;;23.58;58.76
25232;BME280;13176;51.140;6.290;2023-05-09T10:53:44;100477.28;;;23.63;57.97
25232;BME280;13176;51.140;6.290;2023-05-09T10:56:31;100444.44;;;23.50;58.24
25232;BME280;13176;51.140;6.290;2023-05-09T10:58:58;100433.31;;;23.68;58.26
25232;BME280;13176;51.140;6.290;2023-05-09T11:01:36;100427.56;;;23.87;57.41
25232;BME280;13176;51.140;6.290;2023-05-09T11:04:09;100450.94;;;24.19;56.38
25232;BME280;13176;51.140;6.290;2023-05-09T11:06:40;100451.66;;;24.44;55.87
25232;BME280;13176;51.140;6.290;2023-05-09T11:11:58;100431.63;;;24.16;58.08
25232;BME280;13176;51.140;6.290;2023-05-09T11:14:37;100402.59;;;23.88;57.74
25232;BME280;13176;51.140;6.290;2023-05-09T11:17:06;100424.63;;;23.54;59.52
25232;BME280;13176;51.140;6.290;2023-05-09T11:22:19;100435.31;;;23.29;60.79
25232;BME280;13176;51.140;6.290;2023-05-09T11:24:48;100337.72;;;22.14;67.79
25232;BME280;13176;51.140;6.290;2023-05-09T11:27:18;100416.03;;;21.83;76.35
25232;BME280;13176;51.140;6.290;2023-05-09T11:29:54;100319.56;;;20.86;79.52
25232;BME280;13176;51.140;6.290;2023-05-09T11:32:26;100427.91;;;21.21;84.31
25232;BME280;13176;51.140;6.290;2023-05-09T11:35:07;100435.66;;;20.96;83.75
25232;BME280;13176;51.140;6.290;2023-05-09T11:40:17;100422.19;;;20.11;88.25
25232;BME280;13176;51.140;6.290;2023-05-09T11:42:54;100430.75;;;20.01;91.16
25232;BME280;13176;51.140;6.290;2023-05-09T11:45:26;100431.06;;;19.95;92.11
25232;BME280;13176;51.140;6.290;2023-05-09T11:47:52;100396.03;;;19.74;92.05
25232;BME280;13176;51.140;6.290;2023-05-09T11:50:20;100402.00;;;19.93;93.11
25232;BME280;13176;51.140;6.290;2023-05-09T11:52:47;100426.88;;;20.06;93.78
25232;BME280;13176;51.140;6.290;2023-05-09T11:55:16;100309.09;;;19.52;93.79
25232;BME280;13176;51.140;6.290;2023-05-09T11:57:45;100341.94;;;19.78;95.29
25232;BME280;13176;51.140;6.290;2023-05-09T12:00:18;100306.56;;;19.79;95.68
25232;BME280;13176;51.140;6.290;2023-05-09T12:02:45;100417.69;;;20.43;95.57
25232;BME280;13176;51.140;6.290;2023-05-09T12:05:14;100299.69;;;19.61;93.93
25232;BME280;13176;51.140;6.290;2023-05-09T12:07:41;100344.50;;;19.95;96.61
25232;BME280;13176;51.140;6.290;2023-05-09T12:10:09;100399.72;;;20.48;95.35
25232;BME280;13176;51.140;6.290;2023-05-09T12:12:45;100366.38;;;20.44;95.24
25232;BME280;13176;51.140;6.290;2023-05-09T12:15:12;100404.59;;;20.69;95.74
25232;BME280;13176;51.140;6.290;2023-05-09T12:17:43;100371.63;;;20.59;94.67
25232;BME280;13176;51.140;6.290;2023-05-09T12:20:10;100297.69;;;20.25;94.39
25232;BME280;13176;51.140;6.290;2023-05-09T12:22:37;100393.31;;;21.09;94.18
25232;BME280;13176;51.140;6.290;2023-05-09T12:25:07;100326.41;;;20.61;92.43
25232;BME280;13176;51.140;6.290;2023-05-09T12:27:36;100315.13;;;20.29;92.38
25232;BME280;13176;51.140;6.290;2023-05-09T12:30:06;100393.09;;;20.84;93.38
25232;BME280;13176;51.140;6.290;2023-05-09T12:32:36;100393.28;;;20.81;91.47
25232;BME280;13176;51.140;6.290;2023-05-09T12:35:06;100307.94;;;20.31;92.40
25232;BME280;13176;51.140;6.290;2023-05-09T12:37:33;100228.38;;;19.88;91.37
25232;BME280;13176;51.140;6.290;2023-05-09T12:40:09;100392.56;;;20.77;92.84
25232;BME280;13176;51.140;6.290;2023-05-09T12:42:38;100364.38;;;20.47;93.96
25232;BME280;13176;51.140;6.290;2023-05-09T12:45:08;100308.59;;;20.05;92.07
25232;BME280;13176;51.140;6.290;2023-05-09T12:47:35;100369.31;;;20.39;94.19
25232;BME280;13176;51.140;6.290;2023-05-09T12:50:05;100242.19;;;19.34;94.97
25232;BME280;13176;51.140;6.290;2023-05-09T12:52:37;100385.75;;;20.30;96.11
25232;BME280;13176;51.140;6.290;2023-05-09T12:55:24;100362.81;;;20.29;97.18
25232;BME280;13176;51.140;6.290;2023-05-09T12:57:58;100306.75;;;19.76;97.31
25232;BME280;13176;51.140;6.290;2023-05-09T13:00:26;100368.53;;;20.08;96.71
25232;BME280;13176;51.140;6.290;2023-05-09T13:02:55;100316.91;;;19.68;96.46
25232;BME280;13176;51.140;6.290;2023-05-09T13:05:22;100364.56;;;20.15;96.22
25232;BME280;13176;51.140;6.290;2023-05-09T13:07:50;100372.69;;;20.41;96.95
25232;BME280;13176;51.140;6.290;2023-05-09T13:10:19;100339.44;;;20.06;96.94
25232;BME280;13176;51.140;6.290;2023-05-09T13:12:49;100361.66;;;20.19;97.87
25232;BME280;13176;51.140;6.290;2023-05-09T13:15:18;100259.03;;;19.62;97.37
25232;BME280;13176;51.140;6.290;2023-05-09T13:17:48;100238.91;;;19.45;98.17
25232;BME280;13176;51.140;6.290;2023-05-09T13:20:15;100344.69;;;20.37;98.15
25232;BME280;13176;51.140;6.290;2023-05-09T13:22:42;100299.47;;;19.95;98.06